Time,TemperatureF,DewpointF,PressureIn,WindDirection,WindDirectionDegrees,WindSpeedMPH,WindSpeedGustMPH,Humidity,HourlyPrecipIn,Conditions,Clouds,dailyrainin,SoftwareType,DateUTC
2013-01-03 00:02:00,17.0,12.0,30.22,SSW,203,10.0,15.0,82,0.00,,,0.00,,2013-01-03 06:02:00,
2013-01-03 00:12:00,17.0,12.0,30.22,SSW,203,10.0,15.0,82,0.00,,,0.00,,2013-01-03 06:12:00,
2013-01-03 00:22:00,17.0,13.0,30.22,SSW,203,8.0,15.0,83,0.00,,,0.00,,2013-01-03 06:22:00,
2013-01-03 00:32:00,16.0,12.0,30.22,SSW,209,8.0,12.0,83,0.00,,,0.00,,2013-01-03 06:32:00,
2013-01-03 00:42:00,16.0,12.0,30.22,SSW,209,8.0,12.0,83,0.00,,,0.00,,2013-01-03 06:42:00,
2013-01-03 00:52:00,16.0,12.0,30.22,SSW,196,9.0,12.0,83,0.00,,,0.00,,2013-01-03 06:52:00,
2013-01-03 01:02:00,17.0,13.0,30.21,SSW,206,9.0,12.0,84,0.00,,,0.00,,2013-01-03 07:02:00,
2013-01-03 01:12:00,17.0,13.0,30.21,SSW,206,9.0,12.0,84,0.00,,,0.00,,2013-01-03 07:12:00,
2013-01-03 01:22:00,17.0,13.0,30.21,SSW,211,8.0,13.0,84,0.00,,,0.00,,2013-01-03 07:22:00,
2013-01-03 01:33:00,17.0,13.0,30.21,SSW,208,7.0,11.0,85,0.00,,,0.00,,2013-01-03 07:33:00,
2013-01-03 01:42:00,17.0,13.0,30.21,SSW,208,7.0,11.0,85,0.00,,,0.00,,2013-01-03 07:42:00,
2013-01-03 01:52:00,18.0,14.0,30.22,SW,217,8.0,13.0,85,0.00,,,0.00,,2013-01-03 07:52:00,
2013-01-03 02:02:00,19.0,15.0,30.22,SW,218,8.0,12.0,85,0.00,,,0.00,,2013-01-03 08:02:00,
2013-01-03 02:12:00,19.0,15.0,30.22,SW,218,8.0,12.0,85,0.00,,,0.00,,2013-01-03 08:12:00,
2013-01-03 02:22:00,19.0,15.0,30.21,SSW,196,6.0,11.0,84,0.00,,,0.00,,2013-01-03 08:22:00,
2013-01-03 02:32:00,19.0,15.0,30.22,SSW,200,6.0,11.0,85,0.00,,,0.00,,2013-01-03 08:32:00,
2013-01-03 02:42:00,19.0,15.0,30.22,SSW,200,6.0,11.0,85,0.00,,,0.00,,2013-01-03 08:42:00,
2013-01-03 02:53:00,19.0,15.0,30.22,SW,236,6.0,10.0,84,0.00,,,0.00,,2013-01-03 08:53:00,
2013-01-03 03:02:00,19.0,15.0,30.22,SSW,200,4.0,10.0,84,0.00,,,0.00,,2013-01-03 09:02:00,
2013-01-03 03:12:00,19.0,15.0,30.22,SSW,200,4.0,10.0,84,0.00,,,0.00,,2013-01-03 09:12:00,
2013-01-03 03:22:00,19.0,16.0,30.23,SW,222,5.0,8.0,86,0.00,,,0.00,,2013-01-03 09:22:00,
2013-01-03 03:33:00,20.0,16.0,30.23,SW,226,6.0,10.0,85,0.00,,,0.00,,2013-01-03 09:33:00,
2013-01-03 03:43:00,20.0,16.0,30.23,SW,226,6.0,10.0,85,0.00,,,0.00,,2013-01-03 09:43:00,
2013-01-03 03:52:00,20.0,16.0,30.23,WSW,239,6.0,10.0,85,0.00,,,0.00,,2013-01-03 09:52:00,
2013-01-03 04:02:00,20.0,16.0,30.23,WSW,240,6.0,11.0,85,0.00,,,0.00,,2013-01-03 10:02:00,
2013-01-03 04:12:00,20.0,16.0,30.23,WSW,240,6.0,11.0,85,0.00,,,0.00,,2013-01-03 10:12:00,
2013-01-03 04:22:00,21.0,17.0,30.23,SW,234,7.0,12.0,85,0.00,,,0.00,,2013-01-03 10:22:00,
2013-01-03 04:33:00,21.0,17.0,30.23,SSW,213,7.0,11.0,85,0.00,,,0.00,,2013-01-03 10:33:00,
2013-01-03 04:42:00,21.0,17.0,30.23,SSW,213,7.0,11.0,85,0.00,,,0.00,,2013-01-03 10:42:00,
2013-01-03 04:52:00,21.0,17.0,30.23,WSW,248,4.0,9.0,86,0.00,,,0.00,,2013-01-03 10:52:00,
2013-01-03 05:02:00,22.0,18.0,30.23,SW,236,4.0,7.0,86,0.00,,,0.00,,2013-01-03 11:02:00,
2013-01-03 05:12:00,22.0,18.0,30.23,SW,236,4.0,7.0,86,0.00,,,0.00,,2013-01-03 11:12:00,
2013-01-03 05:22:00,21.0,17.0,30.24,SW,236,4.0,9.0,86,0.00,,,0.00,,2013-01-03 11:22:00,
2013-01-03 05:33:00,21.0,18.0,30.24,SW,225,3.0,7.0,87,0.00,,,0.00,,2013-01-03 11:33:00,
2013-01-03 05:43:00,21.0,18.0,30.24,SW,225,3.0,7.0,87,0.00,,,0.00,,2013-01-03 11:43:00,
2013-01-03 05:53:00,22.0,19.0,30.24,WSW,248,3.0,7.0,87,0.00,,,0.00,,2013-01-03 11:53:00,
2013-01-03 06:03:00,21.0,18.0,30.24,SW,231,3.0,6.0,87,0.00,,,0.00,,2013-01-03 12:03:00,
2013-01-03 06:12:00,21.0,18.0,30.24,SW,231,3.0,6.0,87,0.00,,,0.00,,2013-01-03 12:12:00,
2013-01-03 06:22:00,21.0,18.0,30.25,WSW,246,1.0,5.0,88,0.00,,,0.00,,2013-01-03 12:22:00,
2013-01-03 06:32:00,21.0,18.0,30.25,SW,222,2.0,4.0,88,0.00,,,0.00,,2013-01-03 12:32:00,
2013-01-03 06:42:00,21.0,18.0,30.25,SW,222,2.0,4.0,88,0.00,,,0.00,,2013-01-03 12:42:00,
2013-01-03 06:52:00,19.0,16.0,30.25,SSW,211,3.0,5.0,88,0.00,,,0.00,,2013-01-03 12:52:00,
2013-01-03 07:02:00,20.0,18.0,30.25,WSW,244,3.0,5.0,90,0.00,,,0.00,,2013-01-03 13:02:00,
2013-01-03 07:13:00,20.0,18.0,30.25,WSW,244,3.0,5.0,90,0.00,,,0.00,,2013-01-03 13:13:00,
2013-01-03 07:22:00,20.0,17.0,30.25,SW,228,3.0,8.0,89,0.00,,,0.00,,2013-01-03 13:22:00,
2013-01-03 07:33:00,21.0,19.0,30.25,SW,234,3.0,6.0,90,0.00,,,0.00,,2013-01-03 13:33:00,
2013-01-03 07:42:00,21.0,19.0,30.25,SW,234,3.0,6.0,90,0.00,,,0.00,,2013-01-03 13:42:00,
2013-01-03 07:52:00,21.0,19.0,30.26,WSW,249,4.0,6.0,90,0.00,,,0.00,,2013-01-03 13:52:00,
2013-01-03 08:03:00,22.0,20.0,30.26,WSW,251,5.0,8.0,90,0.00,,,0.00,,2013-01-03 14:03:00,
2013-01-03 08:12:00,22.0,20.0,30.26,WSW,251,5.0,8.0,90,0.00,,,0.00,,2013-01-03 14:12:00,
2013-01-03 08:22:00,22.0,20.0,30.27,WSW,250,5.0,9.0,90,0.00,,,0.00,,2013-01-03 14:22:00,
2013-01-03 08:33:00,23.0,21.0,30.27,SW,233,5.0,9.0,90,0.00,,,0.00,,2013-01-03 14:33:00,
2013-01-03 08:42:00,23.0,21.0,30.27,SW,233,5.0,9.0,90,0.00,,,0.00,,2013-01-03 14:42:00,
2013-01-03 08:53:00,23.0,21.0,30.28,WSW,242,4.0,9.0,90,0.00,,,0.00,,2013-01-03 14:53:00,
2013-01-03 09:03:00,24.0,22.0,30.28,WSW,244,6.0,10.0,90,0.00,,,0.00,,2013-01-03 15:03:00,
2013-01-03 09:12:00,24.0,22.0,30.28,WSW,244,6.0,10.0,90,0.00,,,0.00,,2013-01-03 15:12:00,
2013-01-03 09:22:00,24.0,22.0,30.28,WSW,238,7.0,12.0,90,0.00,,,0.00,,2013-01-03 15:22:00,
2013-01-03 09:33:00,25.0,23.0,30.29,WSW,244,5.0,10.0,91,0.00,,,0.00,,2013-01-03 15:33:00,
2013-01-03 09:43:00,25.0,23.0,30.29,WSW,244,5.0,10.0,91,0.00,,,0.00,,2013-01-03 15:43:00,
2013-01-03 09:53:00,25.0,23.0,30.30,WSW,252,6.0,9.0,91,0.00,,,0.00,,2013-01-03 15:53:00,
2013-01-03 10:03:00,26.0,23.0,30.30,WSW,258,5.0,9.0,90,0.00,,,0.00,,2013-01-03 16:03:00,
2013-01-03 10:12:00,26.0,23.0,30.30,WSW,258,5.0,9.0,90,0.00,,,0.00,,2013-01-03 16:12:00,
2013-01-03 10:22:00,27.0,24.0,30.31,WSW,251,5.0,8.0,90,0.00,,,0.00,,2013-01-03 16:22:00,
2013-01-03 10:33:00,27.0,24.0,30.32,SW,234,5.0,8.0,90,0.00,,,0.00,,2013-01-03 16:33:00,
2013-01-03 10:43:00,27.0,24.0,30.32,SW,234,5.0,8.0,90,0.00,,,0.00,,2013-01-03 16:43:00,
2013-01-03 10:52:00,28.0,25.0,30.32,WSW,255,6.0,11.0,88,0.00,,,0.00,,2013-01-03 16:52:00,
2013-01-03 11:03:00,28.0,25.0,30.32,West,265,7.0,12.0,88,0.00,,,0.00,,2013-01-03 17:03:00,
2013-01-03 11:12:00,28.0,25.0,30.32,West,265,7.0,12.0,88,0.00,,,0.00,,2013-01-03 17:12:00,
2013-01-03 11:23:00,29.0,26.0,30.32,WSW,256,7.0,12.0,87,0.00,,,0.00,,2013-01-03 17:23:00,
2013-01-03 11:33:00,29.0,25.0,30.32,WNW,283,8.0,14.0,86,0.00,,,0.00,,2013-01-03 17:33:00,
2013-01-03 11:43:00,29.0,25.0,30.32,WNW,283,8.0,14.0,86,0.00,,,0.00,,2013-01-03 17:43:00,
2013-01-03 11:52:00,29.0,25.0,30.31,West,267,7.0,12.0,86,0.00,,,0.00,,2013-01-03 17:52:00,
2013-01-03 12:03:00,30.0,26.0,30.31,West,270,7.0,12.0,86,0.00,,,0.00,,2013-01-03 18:03:00,
2013-01-03 12:13:00,30.0,26.0,30.31,West,270,7.0,12.0,86,0.00,,,0.00,,2013-01-03 18:13:00,
2013-01-03 12:22:00,30.0,26.0,30.30,West,261,9.0,14.0,84,0.00,,,0.00,,2013-01-03 18:22:00,
2013-01-03 12:33:00,31.0,27.0,30.30,WNW,285,8.0,14.0,84,0.00,,,0.00,,2013-01-03 18:33:00,
2013-01-03 12:42:00,31.0,27.0,30.30,WNW,285,8.0,14.0,84,0.00,,,0.00,,2013-01-03 18:42:00,
2013-01-03 12:53:00,31.0,27.0,30.29,West,271,9.0,15.0,84,0.00,,,0.00,,2013-01-03 18:53:00,
2013-01-03 13:03:00,31.0,27.0,30.29,West,269,8.0,12.0,84,0.00,,,0.00,,2013-01-03 19:03:00,
2013-01-03 13:12:00,31.0,27.0,30.29,West,269,8.0,12.0,84,0.00,,,0.00,,2013-01-03 19:12:00,
2013-01-03 20:52:00,21.0,17.0,30.38,NW,319,4.0,7.0,84,0.00,,,0.00,,2013-01-04 02:52:00,
2013-01-03 21:02:00,22.0,18.0,30.39,West,280,5.0,8.0,83,0.00,,,0.00,,2013-01-04 03:02:00,
2013-01-03 21:12:00,22.0,18.0,30.39,West,280,5.0,8.0,83,0.00,,,0.00,,2013-01-04 03:12:00,
2013-01-03 21:22:00,22.0,17.0,30.39,WNW,301,4.0,9.0,82,0.00,,,0.00,,2013-01-04 03:22:00,
2013-01-03 21:32:00,21.0,17.0,30.39,West,281,4.0,6.0,84,0.00,,,0.00,,2013-01-04 03:32:00,
2013-01-03 21:42:00,21.0,17.0,30.39,West,281,4.0,6.0,84,0.00,,,0.00,,2013-01-04 03:42:00,
2013-01-03 21:52:00,21.0,17.0,30.39,NW,306,5.0,10.0,83,0.00,,,0.00,,2013-01-04 03:52:00,
2013-01-03 22:02:00,21.0,16.0,30.40,West,278,4.0,8.0,82,0.00,,,0.00,,2013-01-04 04:02:00,
2013-01-03 22:12:00,21.0,16.0,30.40,West,278,4.0,8.0,82,0.00,,,0.00,,2013-01-04 04:12:00,
2013-01-03 22:22:00,21.0,16.0,30.40,WNW,284,4.0,9.0,81,0.00,,,0.00,,2013-01-04 04:22:00,
2013-01-03 22:32:00,20.0,15.0,30.39,WNW,286,5.0,10.0,80,0.00,,,0.00,,2013-01-04 04:32:00,
2013-01-03 22:42:00,20.0,15.0,30.39,WNW,286,5.0,10.0,80,0.00,,,0.00,,2013-01-04 04:42:00,
2013-01-03 22:52:00,20.0,15.0,30.39,WNW,286,5.0,10.0,80,0.00,,,0.00,,2013-01-04 04:52:00,
2013-01-03 23:03:00,20.0,15.0,30.39,WNW,287,7.0,11.0,80,0.00,,,0.00,,2013-01-04 05:03:00,
2013-01-03 23:12:00,20.0,15.0,30.39,WNW,287,7.0,11.0,80,0.00,,,0.00,,2013-01-04 05:12:00,
2013-01-03 23:22:00,19.0,14.0,30.39,WNW,284,6.0,12.0,80,0.00,,,0.00,,2013-01-04 05:22:00,
2013-01-03 23:33:00,19.0,14.0,30.39,WNW,284,6.0,12.0,80,0.00,,,0.00,,2013-01-04 05:33:00,
2013-01-03 23:42:00,19.0,14.0,30.39,WNW,284,6.0,12.0,80,0.00,,,0.00,,2013-01-04 05:42:00,
2013-01-03 23:52:00,18.0,13.0,30.38,West,277,5.0,10.0,81,0.00,,,0.00,,2013-01-04 05:52:00,